sensor_id;sensor_type;location;lat;lon;timestamp;pressure;altitude;pressure_sealevel;temperature;humidity
9672;BME280;4874;43.568;27.824;2023-02-28T00:00:37;99883.75;;;5.85;100.00
9672;BME280;4874;43.568;27.824;2023-02-28T00:03:05;99892.63;;;5.98;100.00
9672;BME280;4874;43.568;27.824;2023-02-28T00:05:32;99919.22;;;5.93;100.00
9672;BME280;4874;43.568;27.824;2023-02-28T00:07:59;99888.69;;;5.75;100.00
9672;BME280;4874;43.568;27.824;2023-02-28T00:10:28;99911.53;;;5.90;100.00
9672;BME280;4874;43.568;27.824;2023-02-28T00:13:00;99890.47;;;5.75;100.00
9672;BME280;4874;43.568;27.824;2023-02-28T00:15:28;99894.31;;;5.99;100.00
9672;BME280;4874;43.568;27.824;2023-02-28T00:17:54;99875.59;;;5.89;100.00
9672;BME280;4874;43.568;27.824;2023-02-28T00:20:21;99869.78;;;5.69;100.00
9672;BME280;4874;43.568;27.824;2023-02-28T00:22:50;99883.13;;;5.66;100.00
9672;BME280;4874;43.568;27.824;2023-02-28T00:25:19;99881.63;;;5.76;100.00
9672;BME280;4874;43.568;27.824;2023-02-28T00:27:47;99855.53;;;5.43;100.00
9672;BME280;4874;43.568;27.824;2023-02-28T00:30:17;99899.88;;;5.65;100.00
9672;BME280;4874;43.568;27.824;2023-02-28T00:32:45;99891.88;;;5.96;100.00
9672;BME280;4874;43.568;27.824;2023-02-28T00:35:12;99908.81;;;6.06;100.00
9672;BME280;4874;43.568;27.824;2023-02-28T00:37:39;99937.41;;;6.12;100.00
9672;BME280;4874;43.568;27.824;2023-02-28T00:40:06;99936.69;;;6.10;100.00
9672;BME280;4874;43.568;27.824;2023-02-28T00:42:34;99949.97;;;5.79;100.00
9672;BME280;4874;43.568;27.824;2023-02-28T00:45:01;99949.44;;;5.88;100.00
9672;BME280;4874;43.568;27.824;2023-02-28T00:47:30;99943.44;;;5.86;100.00
9672;BME280;4874;43.568;27.824;2023-02-28T00:49:57;99936.84;;;6.07;100.00
9672;BME280;4874;43.568;27.824;2023-02-28T00:52:24;99930.75;;;5.77;100.00
9672;BME280;4874;43.568;27.824;2023-02-28T00:54:50;99929.75;;;5.64;100.00
9672;BME280;4874;43.568;27.824;2023-02-28T00:57:17;99909.25;;;5.55;100.00
9672;BME280;4874;43.568;27.824;2023-02-28T00:59:44;99947.22;;;5.96;100.00
9672;BME280;4874;43.568;27.824;2023-02-28T01:02:11;99949.06;;;5.94;100.00
9672;BME280;4874;43.568;27.824;2023-02-28T01:04:37;99930.34;;;5.98;100.00
9672;BME280;4874;43.568;27.824;2023-02-28T01:07:04;99958.28;;;5.87;100.00
9672;BME280;4874;43.568;27.824;2023-02-28T01:09:31;99902.84;;;5.45;100.00
9672;BME280;4874;43.568;27.824;2023-02-28T01:11:57;99962.94;;;5.52;100.00
9672;BME280;4874;43.568;27.824;2023-02-28T01:14:24;99937.03;;;6.04;100.00
9672;BME280;4874;43.568;27.824;2023-02-28T01:16:51;99924.25;;;5.68;100.00
9672;BME280;4874;43.568;27.824;2023-02-28T01:19:18;99867.16;;;5.39;100.00
9672;BME280;4874;43.568;27.824;2023-02-28T01:21:44;99930.38;;;5.69;100.00
9672;BME280;4874;43.568;27.824;2023-02-28T01:24:13;99937.16;;;6.17;100.00
9672;BME280;4874;43.568;27.824;2023-02-28T01:26:40;99937.00;;;5.90;100.00
9672;BME280;4874;43.568;27.824;2023-02-28T01:29:07;99925.66;;;5.89;100.00
9672;BME280;4874;43.568;27.824;2023-02-28T01:31:33;99928.13;;;6.07;100.00
9672;BME280;4874;43.568;27.824;2023-02-28T01:34:00;99924.06;;;6.15;100.00
9672;BME280;4874;43.568;27.824;2023-02-28T01:36:27;99926.72;;;6.15;100.00
9672;BME280;4874;43.568;27.824;2023-02-28T01:38:54;99925.69;;;5.74;100.00
9672;BME280;4874;43.568;27.824;2023-02-28T01:41:26;99929.88;;;5.92;100.00
9672;BME280;4874;43.568;27.824;2023-02-28T01:43:56;99937.56;;;5.81;100.00
9672;BME280;4874;43.568;27.824;2023-02-28T01:46:23;99931.78;;;6.04;100.00
9672;BME280;4874;43.568;27.824;2023-02-28T01:49:01;99924.53;;;6.22;100.00
9672;BME280;4874;43.568;27.824;2023-02-28T01:51:39;99935.66;;;6.27;100.00
9672;BME280;4874;43.568;27.824;2023-02-28T01:54:16;99944.56;;;5.96;100.00
9672;BME280;4874;43.568;27.824;2023-02-28T01:56:53;99943.22;;;5.89;100.00
9672;BME280;4874;43.568;27.824;2023-02-28T01:59:49;99922.91;;;6.05;100.00
9672;BME280;4874;43.568;27.824;2023-02-28T02:02:20;99914.44;;;6.14;100.00
9672;BME280;4874;43.568;27.824;2023-02-28T02:04:58;99922.16;;;5.89;100.00
9672;BME280;4874;43.568;27.824;2023-02-28T02:07:31;99923.00;;;6.04;100.00
9672;BME280;4874;43.568;27.824;2023-02-28T02:10:05;99923.97;;;6.03;100.00
9672;BME280;4874;43.568;27.824;2023-02-28T02:32:54;99976.06;;;5.83;100.00
9672;BME280;4874;43.568;27.824;2023-02-28T02:38:06;99968.22;;;5.82;100.00
9672;BME280;4874;43.568;27.824;2023-02-28T02:43:48;99939.16;;;5.83;100.00
9672;BME280;4874;43.568;27.824;2023-02-28T02:46:21;99961.88;;;6.00;100.00
9672;BME280;4874;43.568;27.824;2023-02-28T02:48:51;99921.88;;;5.93;100.00
9672;BME280;4874;43.568;27.824;2023-02-28T02:51:23;99961.91;;;6.14;100.00
9672;BME280;4874;43.568;27.824;2023-02-28T02:54:00;99969.63;;;6.03;100.00
9672;BME280;4874;43.568;27.824;2023-02-28T02:56:31;99938.19;;;5.70;100.00
9672;BME280;4874;43.568;27.824;2023-02-28T02:59:02;99991.72;;;6.01;100.00
9672;BME280;4874;43.568;27.824;2023-02-28T03:01:31;99997.75;;;6.03;100.00
9672;BME280;4874;43.568;27.824;2023-02-28T03:04:11;99995.75;;;5.92;100.00
9672;BME280;4874;43.568;27.824;2023-02-28T03:06:40;99990.78;;;5.72;100.00
9672;BME280;4874;43.568;27.824;2023-02-28T03:09:06;99988.63;;;5.78;100.00
9672;BME280;4874;43.568;27.824;2023-02-28T03:11:35;99983.22;;;5.66;100.00
9672;BME280;4874;43.568;27.824;2023-02-28T03:17:28;99987.31;;;6.01;100.00
9672;BME280;4874;43.568;27.824;2023-02-28T03:22:49;99980.97;;;5.44;100.00
9672;BME280;4874;43.568;27.824;2023-02-28T03:30:32;99979.34;;;5.87;100.00
9672;BME280;4874;43.568;27.824;2023-02-28T03:33:05;99981.09;;;5.72;100.00
9672;BME280;4874;43.568;27.824;2023-02-28T03:35:40;99984.81;;;5.68;100.00
9672;BME280;4874;43.568;27.824;2023-02-28T03:41:22;99991.25;;;5.78;100.00
9672;BME280;4874;43.568;27.824;2023-02-28T03:43:58;99998.22;;;6.09;100.00
9672;BME280;4874;43.568;27.824;2023-02-28T03:46:31;99988.41;;;5.97;100.00
9672;BME280;4874;43.568;27.824;2023-02-28T03:49:06;99979.59;;;5.98;100.00
9672;BME280;4874;43.568;27.824;2023-02-28T03:51:36;99990.81;;;6.02;100.00
9672;BME280;4874;43.568;27.824;2023-02-28T03:54:08;99987.13;;;5.59;100.00
9672;BME280;4874;43.568;27.824;2023-02-28T03:56:48;100004.75;;;5.88;100.00
9672;BME280;4874;43.568;27.824;2023-02-28T03:59:30;99984.09;;;5.51;100.00
9672;BME280;4874;43.568;27.824;2023-02-28T04:01:59;99992.72;;;5.68;100.00
9672;BME280;4874;43.568;27.824;2023-02-28T04:04:26;99995.94;;;5.73;100.00
9672;BME280;4874;43.568;27.824;2023-02-28T04:06:53;99977.78;;;5.98;100.00
9672;BME280;4874;43.568;27.824;2023-02-28T04:09:27;99942.34;;;5.59;100.00
9672;BME280;4874;43.568;27.824;2023-02-28T04:11:54;99980.03;;;5.90;100.00
9672;BME280;4874;43.568;27.824;2023-02-28T04:14:24;99978.13;;;6.22;100.00
9672;BME280;4874;43.568;27.824;2023-02-28T04:16:50;99985.91;;;6.10;100.00
9672;BME280;4874;43.568;27.824;2023-02-28T04:19:18;99992.25;;;5.91;100.00
9672;BME280;4874;43.568;27.824;2023-02-28T04:21:47;100005.47;;;6.06;100.00
9672;BME280;4874;43.568;27.824;2023-02-28T04:24:17;100020.13;;;6.25;100.00
9672;BME280;4874;43.568;27.824;2023-02-28T04:26:47;100019.84;;;6.30;100.00
9672;BME280;4874;43.568;27.824;2023-02-28T04:29:24;100027.38;;;6.22;100.00
9672;BME280;4874;43.568;27.824;2023-02-28T04:31:52;100031.59;;;6.24;100.00
9672;BME280;4874;43.568;27.824;2023-02-28T04:34:20;100009.94;;;6.33;100.00
9672;BME280;4874;43.568;27.824;2023-02-28T04:36:48;100030.44;;;6.14;100.00
9672;BME280;4874;43.568;27.824;2023-02-28T04:39:37;100013.63;;;6.45;100.00
9672;BME280;4874;43.568;27.824;2023-02-28T04:42:04;100005.19;;;5.96;100.00
9672;BME280;4874;43.568;27.824;2023-02-28T04:44:30;100008.34;;;5.87;100.00
9672;BME280;4874;43.568;27.824;2023-02-28T04:46:58;100018.16;;;5.99;100.00
9672;BME280;4874;43.568;27.824;2023-02-28T04:49:24;100014.59;;;6.00;100.00
9672;BME280;4874;43.568;27.824;2023-02-28T04:51:51;100015.25;;;5.89;100.00
9672;BME280;4874;43.568;27.824;2023-02-28T04:54:19;100013.13;;;5.65;100.00
9672;BME280;4874;43.568;27.824;2023-02-28T04:56:46;100008.44;;;5.70;100.00
9672;BME280;4874;43.568;27.824;2023-02-28T04:59:16;100019.16;;;5.67;100.00
9672;BME280;4874;43.568;27.824;2023-02-28T05:01:47;100014.72;;;5.67;100.00
9672;BME280;4874;43.568;27.824;2023-02-28T05:04:14;100013.34;;;5.76;100.00
9672;BME280;4874;43.568;27.824;2023-02-28T05:06:41;99997.25;;;5.51;100.00
9672;BME280;4874;43.568;27.824;2023-02-28T05:09:07;100017.34;;;5.83;100.00
9672;BME280;4874;43.568;27.824;2023-02-28T05:11:35;100011.16;;;5.68;100.00
9672;BME280;4874;43.568;27.824;2023-02-28T05:14:03;100019.19;;;5.51;100.00
9672;BME280;4874;43.568;27.824;2023-02-28T05:16:31;100040.91;;;5.70;100.00
9672;BME280;4874;43.568;27.824;2023-02-28T05:18:58;100041.00;;;5.69;100.00
9672;BME280;4874;43.568;27.824;2023-02-28T05:21:31;100029.22;;;5.60;100.00
9672;BME280;4874;43.568;27.824;2023-02-28T05:24:00;99991.84;;;5.38;100.00
9672;BME280;4874;43.568;27.824;2023-02-28T05:26:28;100050.81;;;5.96;100.00
9672;BME280;4874;43.568;27.824;2023-02-28T05:28:55;100058.31;;;5.88;100.00
9672;BME280;4874;43.568;27.824;2023-02-28T05:31:22;100061.31;;;5.67;100.00
9672;BME280;4874;43.568;27.824;2023-02-28T05:33:49;100054.88;;;5.41;100.00
9672;BME280;4874;43.568;27.824;2023-02-28T05:36:16;99969.88;;;4.77;100.00
9672;BME280;4874;43.568;27.824;2023-02-28T05:38:42;100067.78;;;5.46;100.00
9672;BME280;4874;43.568;27.824;2023-02-28T05:41:10;100062.00;;;5.39;100.00
9672;BME280;4874;43.568;27.824;2023-02-28T05:43:37;100040.94;;;5.39;100.00
9672;BME280;4874;43.568;27.824;2023-02-28T05:46:04;100090.53;;;5.62;100.00
9672;BME280;4874;43.568;27.824;2023-02-28T05:48:32;100082.72;;;5.45;100.00
9672;BME280;4874;43.568;27.824;2023-02-28T05:50:59;100082.38;;;5.51;100.00
9672;BME280;4874;43.568;27.824;2023-02-28T05:53:26;100086.88;;;5.34;100.00
9672;BME280;4874;43.568;27.824;2023-02-28T05:55:53;100089.09;;;5.26;100.00
9672;BME280;4874;43.568;27.824;2023-02-28T05:58:20;100083.06;;;5.24;100.00
9672;BME280;4874;43.568;27.824;2023-02-28T06:00:47;100074.56;;;5.19;100.00
9672;BME280;4874;43.568;27.824;2023-02-28T06:03:14;100082.63;;;5.16;100.00
9672;BME280;4874;43.568;27.824;2023-02-28T06:05:40;100085.75;;;5.07;100.00
9672;BME280;4874;43.568;27.824;2023-02-28T06:08:07;100088.13;;;5.11;100.00
9672;BME280;4874;43.568;27.824;2023-02-28T06:10:34;100095.25;;;5.09;100.00
9672;BME280;4874;43.568;27.824;2023-02-28T06:13:02;100096.56;;;5.33;100.00
9672;BME280;4874;43.568;27.824;2023-02-28T06:15:30;100099.03;;;5.21;100.00
9672;BME280;4874;43.568;27.824;2023-02-28T06:17:57;100101.41;;;5.25;100.00
9672;BME280;4874;43.568;27.824;2023-02-28T06:20:25;100091.19;;;5.04;100.00
9672;BME280;4874;43.568;27.824;2023-02-28T06:22:57;100099.94;;;5.20;100.00
9672;BME280;4874;43.568;27.824;2023-02-28T06:25:26;100098.94;;;5.22;100.00
9672;BME280;4874;43.568;27.824;2023-02-28T06:27:55;100099.53;;;5.27;100.00
9672;BME280;4874;43.568;27.824;2023-02-28T06:30:24;100102.78;;;5.48;100.00
9672;BME280;4874;43.568;27.824;2023-02-28T06:32:56;100100.22;;;5.31;100.00
9672;BME280;4874;43.568;27.824;2023-02-28T06:35:22;100006.22;;;5.02;100.00
9672;BME280;4874;43.568;27.824;2023-02-28T06:37:49;100105.31;;;5.34;100.00
9672;BME280;4874;43.568;27.824;2023-02-28T06:40:16;100103.94;;;5.27;100.00
9672;BME280;4874;43.568;27.824;2023-02-28T06:42:43;100106.41;;;5.30;100.00
9672;BME280;4874;43.568;27.824;2023-02-28T06:45:10;100070.66;;;5.10;100.00
9672;BME280;4874;43.568;27.824;2023-02-28T06:47:39;100110.31;;;5.38;100.00
9672;BME280;4874;43.568;27.824;2023-02-28T06:50:07;100113.78;;;5.23;100.00
9672;BME280;4874;43.568;27.824;2023-02-28T06:52:34;100118.25;;;5.06;100.00
9672;BME280;4874;43.568;27.824;2023-02-28T06:55:07;100063.13;;;4.87;100.00
9672;BME280;4874;43.568;27.824;2023-02-28T06:57:35;100125.34;;;5.21;100.00
9672;BME280;4874;43.568;27.824;2023-02-28T07:00:09;100119.38;;;5.02;100.00
9672;BME280;4874;43.568;27.824;2023-02-28T07:02:36;100094.00;;;4.83;100.00
9672;BME280;4874;43.568;27.824;2023-02-28T07:05:05;100112.97;;;5.23;100.00
9672;BME280;4874;43.568;27.824;2023-02-28T07:07:32;100084.91;;;5.22;100.00
9672;BME280;4874;43.568;27.824;2023-02-28T07:09:59;100073.44;;;5.38;100.00
9672;BME280;4874;43.568;27.824;2023-02-28T07:12:25;100098.53;;;5.14;100.00
9672;BME280;4874;43.568;27.824;2023-02-28T07:14:52;100094.38;;;5.26;100.00
9672;BME280;4874;43.568;27.824;2023-02-28T07:17:18;100106.94;;;5.36;100.00
9672;BME280;4874;43.568;27.824;2023-02-28T07:19:45;100105.94;;;5.06;100.00
9672;BME280;4874;43.568;27.824;2023-02-28T07:22:12;100120.22;;;5.18;100.00
9672;BME280;4874;43.568;27.824;2023-02-28T07:24:41;100110.75;;;5.31;100.00
9672;BME280;4874;43.568;27.824;2023-02-28T07:27:08;100021.66;;;4.59;100.00
9672;BME280;4874;43.568;27.824;2023-02-28T07:29:34;100126.88;;;5.25;100.00
9672;BME280;4874;43.568;27.824;2023-02-28T07:32:01;100118.16;;;5.40;100.00
9672;BME280;4874;43.568;27.824;2023-02-28T07:34:28;100120.22;;;5.18;100.00
9672;BME280;4874;43.568;27.824;2023-02-28T07:36:54;100112.44;;;5.32;100.00
9672;BME280;4874;43.568;27.824;2023-02-28T07:39:22;100117.44;;;5.21;100.00
9672;BME280;4874;43.568;27.824;2023-02-28T07:41:48;100114.81;;;5.21;100.00
9672;BME280;4874;43.568;27.824;2023-02-28T07:44:15;100124.19;;;5.57;100.00
9672;BME280;4874;43.568;27.824;2023-02-28T07:46:43;100114.50;;;5.42;100.00
9672;BME280;4874;43.568;27.824;2023-02-28T07:49:09;100114.66;;;5.39;100.00
9672;BME280;4874;43.568;27.824;2023-02-28T07:51:36;100106.69;;;5.72;100.00
9672;BME280;4874;43.568;27.824;2023-02-28T07:54:03;100120.66;;;5.89;100.00
9672;BME280;4874;43.568;27.824;2023-02-28T07:56:30;100124.19;;;5.57;100.00
9672;BME280;4874;43.568;27.824;2023-02-28T07:58:57;100114.13;;;5.64;100.00
9672;BME280;4874;43.568;27.824;2023-02-28T08:01:24;100106.78;;;5.55;100.00
9672;BME280;4874;43.568;27.824;2023-02-28T08:03:50;100104.31;;;5.83;100.00
9672;BME280;4874;43.568;27.824;2023-02-28T08:06:21;100108.28;;;6.06;100.00
9672;BME280;4874;43.568;27.824;2023-02-28T08:08:49;100054.63;;;5.30;100.00
9672;BME280;4874;43.568;27.824;2023-02-28T08:11:16;100111.28;;;5.53;100.00
9672;BME280;4874;43.568;27.824;2023-02-28T08:13:44;100110.25;;;5.40;100.00
9672;BME280;4874;43.568;27.824;2023-02-28T08:16:12;100077.03;;;5.53;100.00
9672;BME280;4874;43.568;27.824;2023-02-28T08:18:49;100097.31;;;5.82;100.00
9672;BME280;4874;43.568;27.824;2023-02-28T08:21:17;100097.50;;;5.63;100.00
9672;BME280;4874;43.568;27.824;2023-02-28T08:23:47;100100.75;;;5.84;100.00
9672;BME280;4874;43.568;27.824;2023-02-28T08:26:16;100104.63;;;5.77;100.00
9672;BME280;4874;43.568;27.824;2023-02-28T08:28:43;100113.63;;;5.73;100.00
9672;BME280;4874;43.568;27.824;2023-02-28T08:31:12;100119.75;;;6.05;100.00
9672;BME280;4874;43.568;27.824;2023-02-28T08:33:41;100123.34;;;5.72;100.00
9672;BME280;4874;43.568;27.824;2023-02-28T08:36:08;100115.97;;;5.94;100.00
9672;BME280;4874;43.568;27.824;2023-02-28T08:38:36;100105.00;;;6.16;100.00
9672;BME280;4874;43.568;27.824;2023-02-28T08:41:06;100101.06;;;5.62;100.00
9672;BME280;4874;43.568;27.824;2023-02-28T08:43:34;100013.44;;;5.29;100.00
9672;BME280;4874;43.568;27.824;2023-02-28T08:46:01;100094.88;;;6.24;100.00
9672;BME280;4874;43.568;27.824;2023-02-28T08:48:30;100080.19;;;6.20;100.00
9672;BME280;4874;43.568;27.824;2023-02-28T08:50:59;100088.63;;;6.11;100.00
9672;BME280;4874;43.568;27.824;2023-02-28T08:53:38;100042.41;;;5.74;100.00
9672;BME280;4874;43.568;27.824;2023-02-28T08:56:06;100101.44;;;6.17;100.00
9672;BME280;4874;43.568;27.824;2023-02-28T08:58:34;100115.28;;;6.21;100.00
9672;BME280;4874;43.568;27.824;2023-02-28T09:01:11;100095.63;;;6.26;100.00
9672;BME280;4874;43.568;27.824;2023-02-28T09:03:39;100108.50;;;6.60;100.00
9672;BME280;4874;43.568;27.824;2023-02-28T09:06:09;100112.81;;;6.77;100.00
9672;BME280;4874;43.568;27.824;2023-02-28T09:08:36;100125.88;;;6.64;100.00
9672;BME280;4874;43.568;27.824;2023-02-28T09:11:04;100129.38;;;6.79;100.00
9672;BME280;4874;43.568;27.824;2023-02-28T09:13:31;100106.31;;;6.09;100.00
9672;BME280;4874;43.568;27.824;2023-02-28T09:16:00;100126.41;;;6.55;100.00
9672;BME280;4874;43.568;27.824;2023-02-28T09:18:27;100122.81;;;6.42;100.00
9672;BME280;4874;43.568;27.824;2023-02-28T09:20:54;100122.31;;;6.36;100.00
9672;BME280;4874;43.568;27.824;2023-02-28T09:23:21;100134.41;;;6.54;100.00
9672;BME280;4874;43.568;27.824;2023-02-28T09:25:53;100113.31;;;6.54;100.00
9672;BME280;4874;43.568;27.824;2023-02-28T09:28:21;100124.06;;;6.51;100.00
9672;BME280;4874;43.568;27.824;2023-02-28T09:30:50;100116.47;;;6.31;100.00
9672;BME280;4874;43.568;27.824;2023-02-28T09:33:18;100117.44;;;6.14;100.00
9672;BME280;4874;43.568;27.824;2023-02-28T09:35:51;100119.72;;;6.20;100.00
9672;BME280;4874;43.568;27.824;2023-02-28T09:38:23;100106.41;;;6.37;100.00
9672;BME280;4874;43.568;27.824;2023-02-28T09:40:51;100108.91;;;6.54;100.00
9672;BME280;4874;43.568;27.824;2023-02-28T09:43:22;100116.06;;;6.23;100.00
9672;BME280;4874;43.568;27.824;2023-02-28T09:45:56;100113.69;;;6.48;100.00
9672;BME280;4874;43.568;27.824;2023-02-28T09:48:28;100102.63;;;6.41;100.00
9672;BME280;4874;43.568;27.824;2023-02-28T09:51:02;100107.03;;;6.56;100.00
9672;BME280;4874;43.568;27.824;2023-02-28T09:53:35;100107.41;;;6.64;100.00
9672;BME280;4874;43.568;27.824;2023-02-28T09:56:18;100107.09;;;6.55;100.00
9672;BME280;4874;43.568;27.824;2023-02-28T09:59:02;100112.22;;;6.72;100.00
9672;BME280;4874;43.568;27.824;2023-02-28T10:01:57;100128.81;;;6.88;100.00
9672;BME280;4874;43.568;27.824;2023-02-28T10:04:46;100095.63;;;6.56;100.00
9672;BME280;4874;43.568;27.824;2023-02-28T10:07:37;100138.84;;;6.53;100.00
9672;BME280;4874;43.568;27.824;2023-02-28T10:13:02;100125.44;;;6.72;100.00
9672;BME280;4874;43.568;27.824;2023-02-28T10:15:32;100093.44;;;6.62;100.00
9672;BME280;4874;43.568;27.824;2023-02-28T10:18:04;100119.50;;;7.10;100.00
9672;BME280;4874;43.568;27.824;2023-02-28T10:20:37;100057.00;;;6.11;100.00
9672;BME280;4874;43.568;27.824;2023-02-28T10:23:14;100120.94;;;6.44;100.00
9672;BME280;4874;43.568;27.824;2023-02-28T10:25:47;100121.94;;;6.99;100.00
9672;BME280;4874;43.568;27.824;2023-02-28T10:28:17;100123.47;;;7.03;100.00
9672;BME280;4874;43.568;27.824;2023-02-28T10:30:50;100111.59;;;7.10;100.00
9672;BME280;4874;43.568;27.824;2023-02-28T10:33:37;100118.16;;;6.75;100.00
9672;BME280;4874;43.568;27.824;2023-02-28T10:36:04;100116.00;;;6.96;100.00
9672;BME280;4874;43.568;27.824;2023-02-28T10:38:38;100116.31;;;7.05;100.00
9672;BME280;4874;43.568;27.824;2023-02-28T10:41:09;100124.69;;;7.26;100.00
9672;BME280;4874;43.568;27.824;2023-02-28T10:43:42;100119.31;;;6.99;100.00
9672;BME280;4874;43.568;27.824;2023-02-28T10:46:14;100115.06;;;6.83;100.00
9672;BME280;4874;43.568;27.824;2023-02-28T10:49:04;100104.63;;;6.52;100.00
9672;BME280;4874;43.568;27.824;2023-02-28T10:51:38;100088.97;;;6.78;100.00
9672;BME280;4874;43.568;27.824;2023-02-28T10:54:05;100101.03;;;6.96;100.00
9672;BME280;4874;43.568;27.824;2023-02-28T10:56:32;100097.69;;;6.79;100.00
9672;BME280;4874;43.568;27.824;2023-02-28T10:59:23;100098.66;;;6.92;100.00
9672;BME280;4874;43.568;27.824;2023-02-28T11:01:53;100087.63;;;6.99;100.00
9672;BME280;4874;43.568;27.824;2023-02-28T11:06:57;100082.84;;;6.92;100.00
9672;BME280;4874;43.568;27.824;2023-02-28T11:09:34;100084.25;;;6.97;100.00
9672;BME280;4874;43.568;27.824;2023-02-28T11:12:06;100058.41;;;6.88;100.00
9672;BME280;4874;43.568;27.824;2023-02-28T11:14:40;100073.13;;;6.78;100.00
9672;BME280;4874;43.568;27.824;2023-02-28T11:17:20;100049.94;;;6.69;100.00
9672;BME280;4874;43.568;27.824;2023-02-28T11:19:51;100081.22;;;7.03;100.00
9672;BME280;4874;43.568;27.824;2023-02-28T11:22:24;100078.13;;;6.97;100.00
9672;BME280;4874;43.568;27.824;2023-02-28T11:25:01;100056.53;;;6.90;100.00
9672;BME280;4874;43.568;27.824;2023-02-28T11:29:59;100057.66;;;7.14;100.00
9672;BME280;4874;43.568;27.824;2023-02-28T11:32:27;100048.63;;;6.90;100.00
9672;BME280;4874;43.568;27.824;2023-02-28T11:37:38;100058.22;;;6.91;100.00
9672;BME280;4874;43.568;27.824;2023-02-28T11:40:16;100055.78;;;7.43;100.00
9672;BME280;4874;43.568;27.824;2023-02-28T11:45:29;100054.81;;;7.58;100.00
9672;BME280;4874;43.568;27.824;2023-02-28T11:56:06;100033.69;;;6.89;100.00
9672;BME280;4874;43.568;27.824;2023-02-28T12:04:24;100027.22;;;6.81;100.00
9672;BME280;4874;43.568;27.824;2023-02-28T12:07:09;100008.56;;;6.70;100.00
9672;BME280;4874;43.568;27.824;2023-02-28T12:20:14;100032.78;;;6.62;100.00
9672;BME280;4874;43.568;27.824;2023-02-28T12:25:18;100038.97;;;6.75;100.00
9672;BME280;4874;43.568;27.824;2023-02-28T12:27:49;100041.91;;;6.71;100.00
9672;BME280;4874;43.568;27.824;2023-02-28T12:32:53;100038.44;;;6.84;100.00
9672;BME280;4874;43.568;27.824;2023-02-28T12:35:26;100042.03;;;6.83;100.00
9672;BME280;4874;43.568;27.824;2023-02-28T12:38:10;100031.00;;;6.77;100.00
9672;BME280;4874;43.568;27.824;2023-02-28T12:40:45;100045.22;;;6.88;100.00
9672;BME280;4874;43.568;27.824;2023-02-28T12:43:15;100047.44;;;6.38;100.00
9672;BME280;4874;43.568;27.824;2023-02-28T12:45:50;100051.06;;;7.07;100.00
9672;BME280;4874;43.568;27.824;2023-02-28T12:48:25;100049.53;;;7.18;100.00
9672;BME280;4874;43.568;27.824;2023-02-28T12:50:54;100039.56;;;6.52;100.00
9672;BME280;4874;43.568;27.824;2023-02-28T12:58:50;100045.00;;;6.06;100.00
9672;BME280;4874;43.568;27.824;2023-02-28T13:05:03;100057.06;;;6.39;100.00
9672;BME280;4874;43.568;27.824;2023-02-28T13:07:52;100052.00;;;6.07;100.00
9672;BME280;4874;43.568;27.824;2023-02-28T13:10:46;100059.09;;;6.20;100.00
9672;BME280;4874;43.568;27.824;2023-02-28T13:13:18;100054.53;;;6.52;100.00
9672;BME280;4874;43.568;27.824;2023-02-28T13:18:39;100050.66;;;6.57;100.00
9672;BME280;4874;43.568;27.824;2023-02-28T13:21:26;100053.19;;;6.45;100.00
9672;BME280;4874;43.568;27.824;2023-02-28T13:24:04;100050.84;;;6.40;100.00
9672;BME280;4874;43.568;27.824;2023-02-28T13:39:56;100041.25;;;6.39;100.00
9672;BME280;4874;43.568;27.824;2023-02-28T13:42:34;100041.69;;;6.32;100.00
9672;BME280;4874;43.568;27.824;2023-02-28T13:47:31;100048.69;;;6.47;100.00
9672;BME280;4874;43.568;27.824;2023-02-28T13:50:22;100048.16;;;6.26;100.00
9672;BME280;4874;43.568;27.824;2023-02-28T13:53:24;100040.56;;;6.36;100.00
9672;BME280;4874;43.568;27.824;2023-02-28T13:56:05;100040.78;;;6.17;100.00
9672;BME280;4874;43.568;27.824;2023-02-28T13:58:43;100031.38;;;5.68;100.00
9672;BME280;4874;43.568;27.824;2023-02-28T14:04:02;100039.06;;;6.02;100.00
9672;BME280;4874;43.568;27.824;2023-02-28T14:06:37;100034.28;;;5.79;100.00
9672;BME280;4874;43.568;27.824;2023-02-28T14:11:37;100018.94;;;6.01;100.00
9672;BME280;4874;43.568;27.824;2023-02-28T14:14:05;100029.72;;;6.26;100.00
9672;BME280;4874;43.568;27.824;2023-02-28T14:16:40;100028.78;;;6.27;100.00
9672;BME280;4874;43.568;27.824;2023-02-28T14:21:43;100024.69;;;6.08;100.00
9672;BME280;4874;43.568;27.824;2023-02-28T14:27:08;100030.38;;;5.86;100.00
9672;BME280;4874;43.568;27.824;2023-02-28T14:38:14;100024.06;;;5.88;100.00
9672;BME280;4874;43.568;27.824;2023-02-28T14:40:44;100028.66;;;5.85;100.00
9672;BME280;4874;43.568;27.824;2023-02-28T14:43:23;100030.00;;;5.76;100.00
9672;BME280;4874;43.568;27.824;2023-02-28T14:45:56;100037.03;;;5.46;100.00
9672;BME280;4874;43.568;27.824;2023-02-28T14:48:24;100031.38;;;5.83;100.00
9672;BME280;4874;43.568;27.824;2023-02-28T14:50:57;100041.75;;;5.86;100.00
9672;BME280;4874;43.568;27.824;2023-02-28T14:53:28;100032.81;;;5.89;100.00
9672;BME280;4874;43.568;27.824;2023-02-28T14:55:55;100046.78;;;5.60;100.00
9672;BME280;4874;43.568;27.824;2023-02-28T14:58:31;100054.97;;;6.01;100.00
9672;BME280;4874;43.568;27.824;2023-02-28T15:01:00;100047.78;;;5.57;100.00
9672;BME280;4874;43.568;27.824;2023-02-28T15:03:31;100050.22;;;5.76;100.00
9672;BME280;4874;43.568;27.824;2023-02-28T15:06:28;100047.28;;;5.66;100.00
9672;BME280;4874;43.568;27.824;2023-02-28T15:09:08;100048.47;;;5.61;100.00
9672;BME280;4874;43.568;27.824;2023-02-28T15:11:37;100041.34;;;5.63;100.00
9672;BME280;4874;43.568;27.824;2023-02-28T15:14:05;100012.69;;;5.72;100.00
9672;BME280;4874;43.568;27.824;2023-02-28T15:16:38;100038.69;;;5.78;100.00
9672;BME280;4874;43.568;27.824;2023-02-28T15:19:29;100005.78;;;5.25;100.00
9672;BME280;4874;43.568;27.824;2023-02-28T15:22:05;100041.59;;;5.89;100.00
9672;BME280;4874;43.568;27.824;2023-02-28T15:24:45;100033.44;;;5.63;100.00
9672;BME280;4874;43.568;27.824;2023-02-28T15:27:16;100037.25;;;5.57;100.00
9672;BME280;4874;43.568;27.824;2023-02-28T15:29:49;100053.41;;;5.82;100.00
9672;BME280;4874;43.568;27.824;2023-02-28T15:32:29;100053.44;;;5.96;100.00